createdAt,value
2023-05-16T00:01:57.919Z,94.56
2023-05-16T00:04:26.581Z,94.47
2023-05-16T00:06:53.384Z,95.74
2023-05-16T00:09:20.313Z,94.94
2023-05-16T00:11:48.477Z,99.15
2023-05-16T00:14:15.397Z,98.35
2023-05-16T00:16:42.310Z,95.75
2023-05-16T00:19:10.584Z,97.98
2023-05-16T00:21:37.336Z,97.13
2023-05-16T00:24:04.428Z,97.80
2023-05-16T00:26:31.214Z,98.41
2023-05-16T00:28:57.933Z,96.87
2023-05-16T00:31:24.675Z,99.59
2023-05-16T00:33:51.466Z,97.82
2023-05-16T00:36:18.086Z,97.15
2023-05-16T00:38:44.768Z,95.93
2023-05-16T00:41:11.519Z,100.00
2023-05-16T00:43:39.823Z,99.65
2023-05-16T00:46:06.599Z,98.49
2023-05-16T00:48:33.730Z,98.10
2023-05-16T00:51:01.462Z,97.68
2023-05-16T00:53:28.278Z,96.98
2023-05-16T00:55:56.640Z,97.50
2023-05-16T00:58:23.358Z,98.12
2023-05-16T01:00:49.990Z,97.43
2023-05-16T01:03:17.340Z,99.32
2023-05-16T01:05:44.275Z,100.00
2023-05-16T01:08:10.964Z,99.46
2023-05-16T01:10:44.431Z,100.00
2023-05-16T01:13:17.144Z,99.64
2023-05-16T01:15:47.087Z,100.00
2023-05-16T01:18:16.505Z,99.12
2023-05-16T01:21:04.103Z,100.00
2023-05-16T01:23:43.963Z,100.00
2023-05-16T01:26:22.686Z,100.00
2023-05-16T01:28:50.670Z,99.95
2023-05-16T01:31:17.550Z,100.00
2023-05-16T01:33:44.342Z,100.00
2023-05-16T01:36:23.399Z,100.00
2023-05-16T01:39:00.021Z,100.00
2023-05-16T01:41:52.829Z,100.00
2023-05-16T01:44:23.918Z,100.00
2023-05-16T01:46:55.425Z,100.00
2023-05-16T01:49:28.259Z,99.36
2023-05-16T01:51:59.213Z,99.79
2023-05-16T01:54:26.678Z,99.93
2023-05-16T01:56:54.319Z,100.00
2023-05-16T01:59:22.381Z,100.00
2023-05-16T02:01:49.460Z,100.00
2023-05-16T02:04:16.386Z,100.00
2023-05-16T02:06:43.768Z,100.00
2023-05-16T02:09:10.365Z,100.00
2023-05-16T02:11:37.080Z,100.00
2023-05-16T02:14:03.852Z,100.00
2023-05-16T02:16:31.748Z,99.40
2023-05-16T02:18:58.462Z,97.17
2023-05-16T02:21:25.777Z,95.73
2023-05-16T02:23:52.413Z,95.31
2023-05-16T02:26:19.117Z,100.00
2023-05-16T02:28:46.194Z,97.59
2023-05-16T02:31:12.908Z,97.56
2023-05-16T02:33:39.998Z,98.75
2023-05-16T02:36:06.929Z,100.00
2023-05-16T02:38:33.634Z,100.00
2023-05-16T02:41:00.527Z,98.82
2023-05-16T02:43:27.223Z,99.38
2023-05-16T02:45:53.889Z,97.70
2023-05-16T02:48:20.785Z,96.98
2023-05-16T02:50:47.560Z,97.57
2023-05-16T02:53:14.296Z,99.39
2023-05-16T02:55:41.110Z,96.38
2023-05-16T02:58:08.549Z,98.96
2023-05-16T03:00:35.175Z,100.00
2023-05-16T03:03:02.252Z,100.00
2023-05-16T03:05:29.200Z,100.00
2023-05-16T03:07:56.184Z,100.00
2023-05-16T03:10:22.916Z,100.00
2023-05-16T03:12:49.570Z,100.00
2023-05-16T03:15:17.217Z,100.00
2023-05-16T03:17:43.818Z,100.00
2023-05-16T03:20:11.627Z,100.00
2023-05-16T03:22:38.282Z,100.00
2023-05-16T03:25:05.339Z,100.00
2023-05-16T03:27:32.134Z,100.00
2023-05-16T03:29:58.839Z,100.00
2023-05-16T03:32:25.604Z,100.00
2023-05-16T03:34:52.292Z,100.00
2023-05-16T03:37:18.983Z,100.00
2023-05-16T03:39:45.682Z,100.00
2023-05-16T03:42:12.552Z,100.00
2023-05-16T03:44:39.811Z,99.68
2023-05-16T03:47:06.584Z,98.39
2023-05-16T03:49:33.298Z,100.00
2023-05-16T03:51:59.916Z,100.00
2023-05-16T03:54:26.675Z,100.00
2023-05-16T03:56:53.252Z,100.00
2023-05-16T03:59:19.989Z,100.00
2023-05-16T04:01:47.078Z,100.00
2023-05-16T04:04:14.349Z,100.00
2023-05-16T04:06:41.111Z,100.00
2023-05-16T04:09:07.855Z,100.00
2023-05-16T04:11:34.520Z,100.00
2023-05-16T04:14:01.936Z,100.00
2023-05-16T04:16:28.893Z,100.00
2023-05-16T04:18:56.537Z,100.00
2023-05-16T04:21:23.348Z,100.00
2023-05-16T04:23:49.977Z,100.00
2023-05-16T04:26:16.642Z,100.00
2023-05-16T04:28:43.392Z,100.00
2023-05-16T04:31:10.558Z,100.00
2023-05-16T04:33:37.485Z,100.00
2023-05-16T04:36:06.198Z,100.00
2023-05-16T04:38:32.953Z,100.00
2023-05-16T04:40:59.569Z,100.00
2023-05-16T04:43:26.483Z,100.00
2023-05-16T04:45:54.234Z,100.00
2023-05-16T04:48:20.887Z,100.00
2023-05-16T04:50:47.611Z,100.00
2023-05-16T04:53:15.264Z,100.00
2023-05-16T04:55:41.981Z,100.00
2023-05-16T04:58:08.582Z,100.00
2023-05-16T05:00:35.207Z,100.00
2023-05-16T05:03:02.013Z,100.00
2023-05-16T05:05:29.164Z,100.00
2023-05-16T05:07:56.087Z,100.00
2023-05-16T05:10:22.690Z,100.00
2023-05-16T05:12:49.320Z,100.00
2023-05-16T05:15:15.997Z,100.00
2023-05-16T05:17:42.878Z,100.00
2023-05-16T05:20:10.669Z,100.00
2023-05-16T05:22:37.336Z,100.00
2023-05-16T05:25:04.370Z,100.00
2023-05-16T05:27:31.553Z,100.00
2023-05-16T05:29:58.163Z,100.00
2023-05-16T05:32:24.958Z,100.00
2023-05-16T05:34:52.708Z,100.00
2023-05-16T05:37:19.422Z,100.00
2023-05-16T05:39:46.241Z,100.00
2023-05-16T05:42:12.959Z,100.00
2023-05-16T05:44:39.651Z,100.00
2023-05-16T05:47:06.584Z,100.00
2023-05-16T05:49:33.787Z,100.00
2023-05-16T05:52:00.451Z,100.00
2023-05-16T05:54:27.212Z,100.00
2023-05-16T05:56:53.881Z,100.00
2023-05-16T05:59:20.535Z,100.00
2023-05-16T06:01:47.309Z,100.00
2023-05-16T06:04:14.008Z,100.00
2023-05-16T06:06:40.824Z,100.00
2023-05-16T06:09:07.507Z,100.00
2023-05-16T06:11:34.238Z,100.00
2023-05-16T06:14:00.990Z,100.00
2023-05-16T06:16:28.007Z,100.00
2023-05-16T06:18:54.726Z,100.00
2023-05-16T06:21:21.548Z,100.00
2023-05-16T06:23:48.209Z,100.00
2023-05-16T06:26:14.952Z,100.00
2023-05-16T06:28:41.767Z,100.00
2023-05-16T06:31:08.652Z,100.00
2023-05-16T06:33:35.356Z,100.00
2023-05-16T06:36:02.027Z,100.00
2023-05-16T06:38:28.709Z,100.00
2023-05-16T06:40:55.562Z,100.00
2023-05-16T06:43:22.335Z,100.00
2023-05-16T06:45:49.015Z,100.00
2023-05-16T06:48:16.336Z,100.00
2023-05-16T06:50:43.111Z,100.00
2023-05-16T06:53:12.386Z,100.00
2023-05-16T06:55:39.840Z,100.00
2023-05-16T06:58:06.664Z,100.00
2023-05-16T07:00:35.589Z,100.00
2023-05-16T07:03:05.591Z,100.00
2023-05-16T07:05:35.434Z,100.00
2023-05-16T07:08:02.288Z,100.00
2023-05-16T07:10:29.350Z,100.00
2023-05-16T07:12:57.038Z,100.00
2023-05-16T07:15:23.889Z,100.00
2023-05-16T07:17:51.163Z,100.00
2023-05-16T07:20:17.981Z,100.00
2023-05-16T07:22:44.684Z,100.00
2023-05-16T07:25:15.668Z,100.00
2023-05-16T07:27:45.138Z,100.00
2023-05-16T07:30:13.261Z,100.00
2023-05-16T07:32:40.664Z,100.00
2023-05-16T07:35:08.003Z,100.00
2023-05-16T07:37:34.867Z,100.00
2023-05-16T07:40:01.676Z,100.00
2023-05-16T07:42:28.363Z,100.00
2023-05-16T07:44:55.032Z,100.00
2023-05-16T07:47:21.742Z,100.00
2023-05-16T07:49:49.320Z,100.00
2023-05-16T07:52:16.082Z,100.00
2023-05-16T07:54:43.795Z,100.00
2023-05-16T07:57:10.850Z,100.00
2023-05-16T07:59:37.786Z,100.00
2023-05-16T08:02:04.667Z,100.00
2023-05-16T08:04:31.396Z,100.00
2023-05-16T08:06:58.307Z,100.00
2023-05-16T08:09:25.056Z,100.00
2023-05-16T08:11:52.042Z,100.00
2023-05-16T08:14:19.161Z,100.00
2023-05-16T08:16:45.961Z,100.00
2023-05-16T08:19:12.814Z,100.00
2023-05-16T08:21:39.675Z,100.00
2023-05-16T08:24:06.863Z,100.00
2023-05-16T08:26:33.738Z,100.00
2023-05-16T08:29:00.473Z,100.00
2023-05-16T08:31:27.264Z,100.00
2023-05-16T08:33:54.114Z,100.00
2023-05-16T08:36:21.202Z,100.00
2023-05-16T08:38:49.808Z,100.00
2023-05-16T08:41:16.810Z,100.00
2023-05-16T08:43:43.605Z,100.00
2023-05-16T08:46:11.063Z,100.00
2023-05-16T08:48:38.963Z,100.00
2023-05-16T08:51:08.202Z,100.00
2023-05-16T08:53:41.297Z,100.00
2023-05-16T08:56:08.814Z,100.00
2023-05-16T08:58:35.954Z,100.00
2023-05-16T09:01:07.360Z,100.00
2023-05-16T09:03:35.613Z,100.00
2023-05-16T09:06:03.138Z,100.00
2023-05-16T09:08:29.942Z,100.00
2023-05-16T09:10:56.668Z,100.00
2023-05-16T09:13:24.252Z,100.00
2023-05-16T09:16:09.918Z,100.00
2023-05-16T09:18:38.038Z,100.00
2023-05-16T09:21:05.587Z,100.00
2023-05-16T09:23:35.117Z,100.00
2023-05-16T09:26:04.460Z,100.00
2023-05-16T09:28:32.014Z,100.00
2023-05-16T09:31:00.218Z,100.00
2023-05-16T09:33:27.654Z,100.00
2023-05-16T09:35:58.535Z,100.00
2023-05-16T09:38:26.737Z,100.00
2023-05-16T09:40:53.996Z,100.00
2023-05-16T09:43:23.194Z,100.00
2023-05-16T09:45:49.880Z,100.00
2023-05-16T09:48:18.367Z,100.00
2023-05-16T09:50:55.196Z,100.00
2023-05-16T09:53:26.915Z,100.00
2023-05-16T09:56:09.443Z,100.00
2023-05-16T09:58:37.028Z,100.00
2023-05-16T10:01:04.014Z,100.00
2023-05-16T10:03:30.932Z,100.00
2023-05-16T10:05:57.863Z,100.00
2023-05-16T10:08:28.319Z,100.00
2023-05-16T10:10:56.088Z,100.00
2023-05-16T10:13:23.817Z,100.00
2023-05-16T10:15:52.088Z,100.00
2023-05-16T10:18:19.878Z,100.00
2023-05-16T10:20:49.391Z,100.00
2023-05-16T10:23:20.113Z,100.00
2023-05-16T10:25:48.138Z,100.00
2023-05-16T10:28:16.572Z,100.00
2023-05-16T10:30:44.790Z,100.00
2023-05-16T10:33:15.955Z,100.00
2023-05-16T10:35:43.127Z,100.00
2023-05-16T10:38:12.194Z,100.00
2023-05-16T10:40:39.662Z,100.00
2023-05-16T10:43:07.753Z,100.00
2023-05-16T10:45:35.235Z,100.00
2023-05-16T10:48:06.741Z,100.00
2023-05-16T10:50:40.772Z,100.00
2023-05-16T10:53:13.449Z,100.00
2023-05-16T10:55:40.807Z,100.00
2023-05-16T10:58:08.306Z,100.00
2023-05-16T11:00:35.457Z,100.00
2023-05-16T11:03:06.797Z,100.00
2023-05-16T11:05:34.565Z,100.00
2023-05-16T11:08:06.691Z,100.00
2023-05-16T11:10:33.615Z,100.00
2023-05-16T11:13:07.601Z,100.00
2023-05-16T11:15:34.925Z,100.00
2023-05-16T11:18:08.844Z,100.00
2023-05-16T11:20:40.079Z,100.00
2023-05-16T11:23:16.902Z,100.00
2023-05-16T11:25:46.183Z,100.00
2023-05-16T11:28:13.999Z,100.00
2023-05-16T11:30:44.910Z,100.00
2023-05-16T11:33:13.233Z,100.00
2023-05-16T11:35:40.134Z,100.00
2023-05-16T11:38:06.816Z,100.00
2023-05-16T11:40:35.862Z,100.00
2023-05-16T11:43:07.093Z,100.00
2023-05-16T11:45:34.560Z,100.00
2023-05-16T11:48:04.851Z,100.00
2023-05-16T11:50:32.602Z,100.00
2023-05-16T11:52:59.775Z,100.00
2023-05-16T11:55:41.324Z,100.00
2023-05-16T11:58:09.609Z,100.00
2023-05-16T12:00:36.701Z,100.00
2023-05-16T12:03:08.365Z,100.00
2023-05-16T12:05:35.969Z,100.00
2023-05-16T12:08:05.298Z,100.00
2023-05-16T12:10:34.911Z,100.00
2023-05-16T12:13:02.453Z,100.00
2023-05-16T12:15:29.684Z,100.00
2023-05-16T12:17:57.270Z,100.00
2023-05-16T12:20:26.248Z,100.00
2023-05-16T12:22:53.025Z,100.00
2023-05-16T12:25:30.247Z,100.00
2023-05-16T12:27:58.724Z,100.00
2023-05-16T12:30:26.606Z,100.00
2023-05-16T12:32:56.057Z,100.00
2023-05-16T12:35:23.223Z,100.00
2023-05-16T12:37:50.727Z,100.00
2023-05-16T12:40:17.714Z,100.00
2023-05-16T12:42:45.461Z,100.00
2023-05-16T12:45:17.169Z,100.00
2023-05-16T12:47:44.147Z,100.00
2023-05-16T12:50:12.945Z,100.00
2023-05-16T12:52:46.646Z,100.00
2023-05-16T12:55:13.403Z,100.00
2023-05-16T12:57:42.025Z,100.00
2023-05-16T13:00:08.971Z,100.00
2023-05-16T13:02:35.645Z,100.00
2023-05-16T13:05:02.455Z,100.00
2023-05-16T13:07:29.141Z,100.00
2023-05-16T13:09:55.909Z,100.00
2023-05-16T13:12:27.069Z,100.00
2023-05-16T13:14:54.887Z,100.00
2023-05-16T13:17:21.577Z,100.00
2023-05-16T13:19:49.043Z,100.00
2023-05-16T13:22:16.021Z,100.00
2023-05-16T13:24:42.733Z,100.00
2023-05-16T13:27:09.586Z,100.00
2023-05-16T13:29:36.210Z,100.00
2023-05-16T13:32:03.134Z,100.00
2023-05-16T13:34:30.503Z,100.00
2023-05-16T13:36:57.196Z,100.00
2023-05-16T13:39:24.043Z,100.00
2023-05-16T13:41:51.180Z,100.00
2023-05-16T13:44:18.332Z,100.00
2023-05-16T13:46:45.277Z,100.00
2023-05-16T13:49:12.011Z,100.00
2023-05-16T13:51:38.712Z,100.00
2023-05-16T13:54:05.635Z,100.00
2023-05-16T13:56:32.311Z,100.00
2023-05-16T13:59:05.850Z,100.00
2023-05-16T14:01:34.394Z,100.00
2023-05-16T14:04:01.199Z,100.00
2023-05-16T14:06:28.540Z,100.00
2023-05-16T14:08:55.245Z,100.00
2023-05-16T14:11:28.824Z,100.00
2023-05-16T14:13:56.634Z,100.00
2023-05-16T14:16:23.368Z,100.00
2023-05-16T14:18:50.141Z,100.00
2023-05-16T14:21:16.884Z,100.00
2023-05-16T14:23:43.538Z,100.00
2023-05-16T14:26:10.211Z,100.00
2023-05-16T14:28:37.201Z,100.00
2023-05-16T14:31:03.943Z,100.00
2023-05-16T14:33:32.539Z,100.00
2023-05-16T14:35:59.237Z,100.00
2023-05-16T14:38:26.059Z,100.00
2023-05-16T14:40:52.783Z,100.00
2023-05-16T14:43:19.491Z,100.00
2023-05-16T14:45:46.197Z,100.00
2023-05-16T14:48:13.075Z,100.00
2023-05-16T14:50:39.746Z,100.00
2023-05-16T14:53:06.515Z,100.00
2023-05-16T14:55:33.253Z,100.00
2023-05-16T14:58:00.336Z,100.00
2023-05-16T15:00:27.771Z,100.00
2023-05-16T15:02:54.758Z,100.00
2023-05-16T15:05:21.600Z,100.00
2023-05-16T15:07:48.678Z,100.00
2023-05-16T15:10:15.469Z,100.00
2023-05-16T15:12:43.452Z,100.00
2023-05-16T15:15:15.680Z,100.00
2023-05-16T15:17:43.361Z,100.00
2023-05-16T15:20:11.202Z,100.00
2023-05-16T15:22:39.268Z,100.00
2023-05-16T15:25:06.266Z,100.00
2023-05-16T15:27:33.033Z,100.00
2023-05-16T15:30:00.878Z,100.00
2023-05-16T15:32:27.805Z,100.00
2023-05-16T15:34:54.548Z,100.00
2023-05-16T15:37:21.344Z,100.00
2023-05-16T15:39:48.174Z,100.00
2023-05-16T15:42:15.119Z,100.00
2023-05-16T15:44:41.803Z,100.00
2023-05-16T15:47:09.380Z,100.00
2023-05-16T15:49:36.053Z,100.00
2023-05-16T15:52:02.752Z,100.00
2023-05-16T15:54:29.876Z,100.00
2023-05-16T15:56:56.803Z,100.00
2023-05-16T15:59:23.499Z,100.00
2023-05-16T16:01:50.220Z,100.00
2023-05-16T16:04:19.362Z,100.00
2023-05-16T16:06:47.100Z,100.00
2023-05-16T16:09:13.755Z,100.00
2023-05-16T16:11:40.473Z,100.00
2023-05-16T16:14:08.798Z,100.00
2023-05-16T16:16:37.416Z,100.00
2023-05-16T16:19:04.299Z,100.00
2023-05-16T16:21:31.485Z,100.00
2023-05-16T16:23:58.260Z,100.00
2023-05-16T16:26:25.963Z,100.00
2023-05-16T16:28:52.722Z,100.00
2023-05-16T16:31:19.471Z,100.00
2023-05-16T16:33:49.300Z,100.00
2023-05-16T16:36:16.518Z,100.00
2023-05-16T16:38:43.154Z,100.00
2023-05-16T16:41:10.313Z,100.00
2023-05-16T16:43:39.918Z,100.00
2023-05-16T16:46:09.825Z,100.00
2023-05-16T16:48:36.660Z,100.00
2023-05-16T16:51:03.441Z,100.00
2023-05-16T16:53:30.227Z,100.00
2023-05-16T16:55:56.970Z,100.00
2023-05-16T16:58:23.753Z,100.00
2023-05-16T17:00:50.454Z,100.00
2023-05-16T17:03:17.369Z,100.00
2023-05-16T17:05:45.158Z,100.00
2023-05-16T17:08:12.342Z,100.00
2023-05-16T17:10:39.492Z,100.00
2023-05-16T17:13:10.539Z,100.00
2023-05-16T17:15:37.988Z,100.00
2023-05-16T17:18:07.732Z,100.00
2023-05-16T17:20:34.958Z,100.00
2023-05-16T17:23:01.827Z,100.00
2023-05-16T17:25:29.287Z,100.00
2023-05-16T17:27:56.407Z,100.00
2023-05-16T17:30:23.776Z,100.00
2023-05-16T17:32:50.526Z,100.00
2023-05-16T17:35:17.455Z,100.00
2023-05-16T17:37:44.189Z,100.00
2023-05-16T17:40:16.530Z,100.00
2023-05-16T17:42:44.010Z,100.00
2023-05-16T17:45:11.465Z,100.00
2023-05-16T17:47:38.188Z,100.00
2023-05-16T17:50:05.567Z,100.00
2023-05-16T17:52:34.303Z,100.00
2023-05-16T17:55:01.135Z,100.00
2023-05-16T17:57:28.158Z,100.00
2023-05-16T17:59:55.953Z,100.00
2023-05-16T18:02:22.742Z,100.00
2023-05-16T18:04:49.476Z,100.00
2023-05-16T18:07:16.178Z,100.00
2023-05-16T18:09:42.900Z,100.00
2023-05-16T18:12:09.735Z,100.00
2023-05-16T18:14:36.460Z,100.00
2023-05-16T18:17:03.868Z,100.00
2023-05-16T18:19:30.901Z,100.00
2023-05-16T18:21:59.776Z,100.00
2023-05-16T18:24:26.440Z,100.00
2023-05-16T18:26:53.147Z,100.00
2023-05-16T18:29:19.885Z,100.00
2023-05-16T18:31:46.600Z,100.00
2023-05-16T18:34:13.366Z,100.00
2023-05-16T18:36:40.043Z,100.00
2023-05-16T18:39:07.255Z,100.00
2023-05-16T18:41:34.159Z,100.00
2023-05-16T18:44:00.916Z,100.00
2023-05-16T18:46:27.603Z,100.00
2023-05-16T18:48:57.878Z,100.00
2023-05-16T18:51:24.949Z,100.00
2023-05-16T18:53:51.786Z,100.00
2023-05-16T18:56:18.458Z,100.00
2023-05-16T18:58:45.233Z,100.00
2023-05-16T19:01:12.003Z,100.00
2023-05-16T19:03:38.867Z,100.00
2023-05-16T19:06:05.589Z,100.00
2023-05-16T19:08:46.461Z,100.00
2023-05-16T19:11:14.598Z,100.00
2023-05-16T19:13:41.318Z,100.00
2023-05-16T19:16:08.136Z,100.00
2023-05-16T19:18:35.532Z,100.00
2023-05-16T19:21:02.593Z,100.00
2023-05-16T19:23:29.501Z,100.00
2023-05-16T19:25:56.511Z,100.00
2023-05-16T19:28:24.725Z,100.00
2023-05-16T19:30:51.556Z,100.00
2023-05-16T19:33:18.181Z,100.00
2023-05-16T19:35:44.812Z,100.00
2023-05-16T19:38:11.429Z,100.00
2023-05-16T19:40:38.237Z,100.00
2023-05-16T19:43:05.028Z,100.00
2023-05-16T19:45:31.718Z,100.00
2023-05-16T19:47:59.010Z,100.00
2023-05-16T19:50:25.800Z,100.00
2023-05-16T19:52:52.473Z,100.00
2023-05-16T19:55:19.221Z,100.00
2023-05-16T19:57:46.168Z,100.00
2023-05-16T20:00:13.291Z,100.00
2023-05-16T20:02:40.225Z,100.00
2023-05-16T20:05:07.282Z,100.00
2023-05-16T20:07:34.089Z,100.00
2023-05-16T20:10:01.064Z,100.00
2023-05-16T20:12:27.759Z,100.00
2023-05-16T20:14:54.441Z,100.00
2023-05-16T20:17:21.174Z,100.00
2023-05-16T20:19:48.070Z,100.00
2023-05-16T20:22:14.754Z,100.00
2023-05-16T20:24:41.402Z,100.00
2023-05-16T20:27:08.110Z,100.00
2023-05-16T20:29:34.786Z,100.00
2023-05-16T20:32:03.429Z,100.00
2023-05-16T20:34:31.646Z,100.00
2023-05-16T20:36:58.681Z,100.00
2023-05-16T20:39:29.181Z,100.00
2023-05-16T20:41:55.963Z,100.00
2023-05-16T20:44:22.652Z,100.00
2023-05-16T20:46:49.386Z,100.00
2023-05-16T20:49:16.179Z,100.00
2023-05-16T20:51:43.034Z,100.00
2023-05-16T20:54:10.824Z,100.00
2023-05-16T20:56:37.464Z,100.00
2023-05-16T20:59:04.334Z,100.00
2023-05-16T21:01:31.009Z,100.00
2023-05-16T21:03:57.803Z,100.00
2023-05-16T21:06:24.534Z,100.00
2023-05-16T21:08:51.192Z,100.00
2023-05-16T21:11:17.907Z,100.00
2023-05-16T21:13:44.526Z,100.00
2023-05-16T21:16:12.762Z,100.00
2023-05-16T21:18:39.642Z,100.00
2023-05-16T21:21:06.381Z,100.00
2023-05-16T21:23:33.082Z,100.00
2023-05-16T21:25:59.774Z,100.00
2023-05-16T21:28:26.448Z,100.00
2023-05-16T21:30:53.401Z,100.00
2023-05-16T21:33:20.178Z,100.00
2023-05-16T21:35:47.370Z,100.00
2023-05-16T21:38:14.046Z,100.00
2023-05-16T21:40:40.724Z,100.00
2023-05-16T21:43:07.345Z,100.00
2023-05-16T21:45:33.989Z,100.00
2023-05-16T21:48:00.827Z,100.00
2023-05-16T21:50:27.661Z,100.00
2023-05-16T21:52:54.325Z,100.00
2023-05-16T21:55:20.965Z,100.00
2023-05-16T21:57:47.930Z,100.00
2023-05-16T22:00:15.025Z,100.00
2023-05-16T22:02:41.742Z,100.00
2023-05-16T22:05:08.949Z,100.00
2023-05-16T22:07:36.151Z,100.00
2023-05-16T22:10:03.381Z,100.00
2023-05-16T22:12:30.024Z,100.00
2023-05-16T22:14:56.984Z,100.00
2023-05-16T22:17:23.711Z,100.00
2023-05-16T22:19:50.586Z,100.00
2023-05-16T22:22:17.504Z,100.00
2023-05-16T22:24:44.189Z,100.00
2023-05-16T22:27:10.919Z,100.00
2023-05-16T22:29:41.108Z,100.00
2023-05-16T22:32:08.516Z,100.00
2023-05-16T22:34:35.595Z,100.00
2023-05-16T22:37:02.298Z,100.00
2023-05-16T22:39:29.057Z,100.00
2023-05-16T22:41:55.842Z,100.00
2023-05-16T22:44:22.494Z,100.00
2023-05-16T22:46:49.300Z,100.00
2023-05-16T22:49:16.584Z,100.00
2023-05-16T22:51:43.295Z,100.00
2023-05-16T22:54:10.019Z,100.00
2023-05-16T22:56:36.760Z,100.00
2023-05-16T22:59:03.488Z,100.00
2023-05-16T23:01:30.221Z,100.00
2023-05-16T23:03:56.951Z,100.00
2023-05-16T23:06:23.663Z,100.00
2023-05-16T23:08:50.390Z,100.00
2023-05-16T23:11:17.136Z,100.00
2023-05-16T23:13:43.865Z,100.00
2023-05-16T23:16:10.671Z,100.00
2023-05-16T23:18:37.384Z,100.00
2023-05-16T23:21:04.202Z,100.00
2023-05-16T23:23:30.831Z,100.00
2023-05-16T23:25:57.429Z,100.00
2023-05-16T23:28:24.107Z,100.00
2023-05-16T23:30:51.417Z,100.00
2023-05-16T23:33:18.243Z,100.00
2023-05-16T23:35:45.092Z,100.00
2023-05-16T23:38:11.717Z,100.00
2023-05-16T23:40:38.570Z,100.00
2023-05-16T23:43:05.200Z,100.00
2023-05-16T23:45:31.855Z,100.00
2023-05-16T23:47:58.630Z,100.00
2023-05-16T23:50:25.381Z,100.00
2023-05-16T23:52:52.055Z,100.00
2023-05-16T23:55:20.551Z,100.00
2023-05-16T23:57:47.357Z,100.00
